createdAt,value
2022-10-26T00:02:43.380Z,100753.00
2022-10-26T00:08:46.782Z,100751.00
2022-10-26T00:14:48.902Z,100760.00
2022-10-26T00:20:51.322Z,100761.00
2022-10-26T00:26:53.475Z,100762.00
2022-10-26T00:32:55.718Z,100765.00
2022-10-26T00:38:58.110Z,100776.00
2022-10-26T00:45:19.836Z,100773.00
2022-10-26T00:51:33.109Z,100778.00
2022-10-26T01:04:00.610Z,100755.00
2022-10-26T01:10:03.073Z,100766.00
2022-10-26T01:16:30.058Z,100762.00
2022-10-26T01:22:42.285Z,100761.00
2022-10-26T01:29:01.758Z,100758.00
2022-10-26T01:35:11.082Z,100762.00
2022-10-26T01:41:29.900Z,100765.00
2022-10-26T01:47:34.256Z,100775.00
2022-10-26T01:53:36.660Z,100770.00
2022-10-26T01:59:38.730Z,100783.00
2022-10-26T02:06:03.963Z,100787.00
2022-10-26T02:12:16.117Z,100790.00
2022-10-26T02:18:36.763Z,100789.00
2022-10-26T02:24:40.583Z,100801.00
2022-10-26T02:30:44.212Z,100804.00
2022-10-26T02:36:49.263Z,100813.00
2022-10-26T02:42:53.143Z,100819.00
2022-10-26T02:48:56.578Z,100819.00
2022-10-26T02:55:07.915Z,100815.00
2022-10-26T03:01:09.969Z,100817.00
2022-10-26T03:07:12.368Z,100823.00
2022-10-26T03:13:14.819Z,100827.00
2022-10-26T03:19:17.166Z,100844.00
2022-10-26T03:25:19.426Z,100850.00
2022-10-26T03:31:21.702Z,100856.00
2022-10-26T03:37:24.366Z,100865.00
2022-10-26T03:43:26.722Z,100858.00
2022-10-26T03:49:28.767Z,100861.00
2022-10-26T03:55:31.001Z,100872.00
2022-10-26T04:01:33.684Z,100860.00
2022-10-26T04:07:36.387Z,100871.00
2022-10-26T04:13:38.591Z,100879.00
2022-10-26T04:19:40.564Z,100869.00
2022-10-26T04:25:43.681Z,100870.00
2022-10-26T04:31:45.724Z,100853.00
2022-10-26T04:37:48.070Z,100850.00
2022-10-26T04:43:50.572Z,100871.00
2022-10-26T04:49:52.601Z,100882.00
2022-10-26T04:55:58.665Z,100890.00
2022-10-26T05:02:00.775Z,100889.00
2022-10-26T05:08:04.109Z,100899.00
2022-10-26T05:14:06.114Z,100903.00
2022-10-26T05:20:13.430Z,100882.00
2022-10-26T05:26:16.030Z,100889.00
2022-10-26T05:32:17.906Z,100911.00
2022-10-26T05:38:20.687Z,100917.00
2022-10-26T05:44:23.034Z,100919.00
2022-10-26T05:50:25.282Z,100933.00
2022-10-26T05:56:39.025Z,100942.00
2022-10-26T06:03:13.150Z,100942.00
2022-10-26T06:09:15.841Z,100953.00
2022-10-26T06:15:21.445Z,100943.00
2022-10-26T06:22:03.506Z,100969.00
2022-10-26T06:28:33.520Z,100971.00
2022-10-26T06:34:38.813Z,100958.00
2022-10-26T06:40:45.234Z,100972.00
2022-10-26T06:47:10.037Z,100954.00
2022-10-26T06:53:19.370Z,100980.00
2022-10-26T06:59:29.380Z,100999.00
2022-10-26T07:05:31.808Z,101014.00
2022-10-26T07:11:33.890Z,101004.00
2022-10-26T07:17:49.804Z,100873.00
2022-10-26T07:23:52.969Z,100941.00
2022-10-26T07:29:55.414Z,100904.00
2022-10-26T07:35:59.771Z,100985.00
2022-10-26T07:42:01.871Z,101005.00
2022-10-26T07:48:04.271Z,101018.00
2022-10-26T07:54:06.504Z,101016.00
2022-10-26T08:00:09.889Z,100990.00
2022-10-26T08:06:12.482Z,100958.00
2022-10-26T08:12:17.022Z,101012.00
2022-10-26T08:18:19.137Z,101031.00
2022-10-26T08:24:21.161Z,101038.00
2022-10-26T08:30:23.179Z,101036.00
2022-10-26T08:36:26.986Z,101040.00
2022-10-26T08:42:34.175Z,101046.00
2022-10-26T08:48:39.847Z,101041.00
2022-10-26T08:54:53.670Z,101052.00
2022-10-26T09:00:55.691Z,101042.00
2022-10-26T09:07:09.238Z,101050.00
2022-10-26T09:13:36.943Z,101061.00
2022-10-26T09:20:02.951Z,101053.00
2022-10-26T09:26:10.553Z,101044.00
2022-10-26T09:32:26.298Z,101042.00
2022-10-26T09:38:40.506Z,101037.00
2022-10-26T09:44:50.902Z,101044.00
2022-10-26T09:50:53.181Z,101037.00
2022-10-26T09:56:59.747Z,101034.00
2022-10-26T10:03:02.099Z,101016.00
2022-10-26T10:09:16.397Z,101014.00
2022-10-26T10:15:24.357Z,101014.00
2022-10-26T10:21:44.478Z,101020.00
2022-10-26T10:27:54.729Z,101011.00
2022-10-26T10:33:57.193Z,101007.00
2022-10-26T10:40:31.596Z,101008.00
2022-10-26T10:46:34.162Z,101009.00
2022-10-26T10:52:36.620Z,100982.00
2022-10-26T10:58:50.402Z,100977.00
2022-10-26T11:05:24.782Z,100983.00
2022-10-26T11:11:36.219Z,100981.00
2022-10-26T11:17:58.418Z,100966.00
2022-10-26T11:24:17.911Z,100939.00
2022-10-26T11:30:27.963Z,100884.00
2022-10-26T11:36:33.521Z,100890.00
2022-10-26T11:42:35.431Z,100882.00
2022-10-26T11:48:59.163Z,100914.00
2022-10-26T11:55:03.099Z,100981.00
2022-10-26T12:01:10.987Z,100994.00
2022-10-26T12:07:30.514Z,100998.00
2022-10-26T12:13:42.752Z,101012.00
2022-10-26T12:20:00.024Z,100998.00
2022-10-26T12:26:24.083Z,100997.00
2022-10-26T12:32:37.257Z,101003.00
2022-10-26T12:38:41.067Z,100995.00
2022-10-26T12:44:43.682Z,100996.00
2022-10-26T12:50:45.857Z,101000.00
2022-10-26T12:57:09.116Z,101002.00
2022-10-26T13:03:31.726Z,101006.00
2022-10-26T13:09:33.836Z,101013.00
2022-10-26T13:15:38.580Z,101008.00
2022-10-26T13:21:47.804Z,101004.00
2022-10-26T13:28:02.058Z,100996.00
2022-10-26T13:34:25.707Z,100999.00
2022-10-26T13:40:29.873Z,101009.00
2022-10-26T13:46:36.274Z,101000.00
2022-10-26T13:52:48.374Z,101009.00
2022-10-26T13:59:06.346Z,101006.00
2022-10-26T14:05:12.656Z,101016.00
2022-10-26T14:11:21.871Z,101003.00
2022-10-26T14:17:26.170Z,101018.00
2022-10-26T14:23:46.331Z,101016.00
2022-10-26T14:30:16.778Z,101029.00
2022-10-26T14:36:11.284Z,101025.00
2022-10-26T14:42:28.636Z,101027.00
2022-10-26T14:48:33.899Z,101027.00
2022-10-26T14:54:36.007Z,101047.00
2022-10-26T15:00:38.101Z,101040.00
2022-10-26T15:06:43.167Z,101038.00
2022-10-26T15:12:45.247Z,101050.00
2022-10-26T15:18:51.622Z,101051.00
2022-10-26T15:24:56.457Z,101062.00
2022-10-26T15:31:12.257Z,101080.00
2022-10-26T15:37:14.411Z,101083.00
2022-10-26T15:43:16.387Z,101091.00
2022-10-26T15:49:20.575Z,101100.00
2022-10-26T15:55:22.742Z,101113.00
2022-10-26T16:01:29.492Z,101107.00
2022-10-26T16:07:31.737Z,101119.00
2022-10-26T16:13:33.955Z,101117.00
2022-10-26T16:19:36.270Z,101126.00
2022-10-26T16:25:44.828Z,101131.00
2022-10-26T16:31:47.508Z,101131.00
2022-10-26T16:37:49.739Z,101135.00
2022-10-26T16:43:51.885Z,101141.00
2022-10-26T16:49:54.299Z,101142.00
2022-10-26T16:56:02.547Z,101148.00
2022-10-26T17:02:05.192Z,101150.00
2022-10-26T17:08:07.779Z,101170.00
2022-10-26T17:14:09.929Z,101163.00
2022-10-26T17:20:12.356Z,101166.00
2022-10-26T17:26:14.870Z,101165.00
2022-10-26T17:32:17.097Z,101164.00
2022-10-26T17:38:19.298Z,101173.00
2022-10-26T17:44:21.466Z,101165.00
2022-10-26T17:50:23.562Z,101184.00
2022-10-26T17:56:28.283Z,101187.00
2022-10-26T18:02:31.610Z,101184.00
2022-10-26T18:08:35.007Z,101196.00
2022-10-26T18:14:37.228Z,101181.00
2022-10-26T18:20:39.444Z,101199.00
2022-10-26T18:26:42.557Z,101204.00
2022-10-26T18:32:44.607Z,101198.00
2022-10-26T18:38:47.976Z,101219.00
2022-10-26T18:44:50.062Z,101225.00
2022-10-26T18:50:52.372Z,101231.00
2022-10-26T18:56:54.775Z,101233.00
2022-10-26T19:02:57.106Z,101252.00
2022-10-26T19:08:59.956Z,101270.00
2022-10-26T19:15:02.041Z,101270.00
2022-10-26T19:21:07.395Z,101283.00
2022-10-26T19:27:09.716Z,101287.00
2022-10-26T19:33:12.066Z,101296.00
2022-10-26T19:39:17.892Z,101304.00
2022-10-26T19:45:20.004Z,101307.00
2022-10-26T19:51:23.245Z,101312.00
2022-10-26T19:57:25.229Z,101318.00
2022-10-26T20:03:29.327Z,101327.00
2022-10-26T20:09:32.726Z,101329.00
2022-10-26T20:15:35.216Z,101330.00
2022-10-26T20:21:38.367Z,101337.00
2022-10-26T20:27:42.266Z,101349.00
2022-10-26T20:33:44.766Z,101348.00
2022-10-26T20:39:47.237Z,101343.00
2022-10-26T20:45:49.603Z,101355.00
2022-10-26T20:52:18.960Z,101360.00
2022-10-26T20:58:38.926Z,101358.00
2022-10-26T21:04:41.122Z,101367.00
2022-10-26T21:10:43.348Z,101367.00
2022-10-26T21:16:45.437Z,101365.00
2022-10-26T21:22:48.006Z,101369.00
2022-10-26T21:28:50.095Z,101382.00
2022-10-26T21:34:52.098Z,101383.00
2022-10-26T21:41:11.543Z,101373.00
2022-10-26T21:47:14.066Z,101374.00
2022-10-26T21:53:16.623Z,101375.00
2022-10-26T21:59:18.795Z,101391.00
2022-10-26T22:05:20.961Z,101395.00
2022-10-26T22:11:25.010Z,101390.00
2022-10-26T22:17:27.316Z,101396.00
2022-10-26T22:23:29.600Z,101385.00
2022-10-26T22:29:31.818Z,101392.00
2022-10-26T22:35:33.986Z,101395.00
2022-10-26T22:41:36.003Z,101392.00
2022-10-26T22:47:37.954Z,101396.00
2022-10-26T22:53:39.987Z,101399.00
2022-10-26T22:59:41.952Z,101408.00
2022-10-26T23:05:48.243Z,101409.00
2022-10-26T23:11:50.299Z,101410.00
2022-10-26T23:17:54.038Z,101404.00
2022-10-26T23:23:56.674Z,101408.00
2022-10-26T23:29:58.591Z,101404.00
2022-10-26T23:36:01.815Z,101409.00
2022-10-26T23:42:03.863Z,101412.00
2022-10-26T23:48:06.100Z,101420.00
2022-10-26T23:54:08.238Z,101424.00
